Time;durP1;ratioP1;P1;durP2;ratioP2;P2;SDS_P1;SDS_P2;PMS_P1;PMS_P2;Temp;Humidity;BMP_temperature;BMP_pressure;BME280_temperature;BME280_humidity;BME280_pressure;Samples;Min_cycle;Max_cycle;Signal;HPM_P1;HPM_P2
2022/04/15 00:00:03;;;;;;;7.20;4.30;;;;;;;7.20;64.14;100682.13;5128265;27;20509;-29
2022/04/15 00:02:29;;;;;;;7.68;4.88;;;;;;;7.11;65.17;100688.53;5128599;27;20583;-28
2022/04/15 00:04:56;;;;;;;9.32;4.82;;;;;;;7.59;63.94;100685.53;5128634;27;20039;-28
2022/04/15 00:07:22;;;;;;;8.80;5.47;;;;;;;7.50;64.06;100676.84;5128737;27;20031;-28
2022/04/15 00:09:48;;;;;;;8.68;6.45;;;;;;;7.78;63.67;100684.13;5110108;28;20505;-29
2022/04/15 00:12:18;;;;;;;12.35;7.13;;;;;;;7.71;64.46;100664.66;5128342;28;20087;-29
2022/04/15 00:14:44;;;;;;;10.68;7.65;;;;;;;8.35;62.01;100685.19;5110375;28;20119;-29
2022/04/15 00:17:11;;;;;;;10.20;6.32;;;;;;;8.32;61.61;100697.00;5128468;28;20031;-29
2022/04/15 00:19:36;;;;;;;11.52;6.55;;;;;;;8.08;61.93;100689.38;5128525;28;20054;-28
2022/04/15 00:22:02;;;;;;;8.50;5.78;;;;;;;8.25;61.69;100688.13;5128514;28;20399;-29
2022/04/15 00:24:27;;;;;;;12.18;7.57;;;;;;;8.22;62.06;100681.38;5109776;28;20023;-30
2022/04/15 00:26:53;;;;;;;9.27;6.45;;;;;;;7.82;64.41;100686.22;5128093;28;20042;-39
2022/04/15 00:29:18;;;;;;;10.43;7.00;;;;;;;7.41;65.04;100678.75;5128590;28;20100;-30
2022/04/15 00:31:44;;;;;;;10.65;7.10;;;;;;;7.29;66.10;100669.59;5128554;28;20031;-29
2022/04/15 00:34:09;;;;;;;10.13;7.05;;;;;;;7.57;64.14;100679.56;5128195;28;20159;-29
2022/04/15 00:36:35;;;;;;;11.10;6.95;;;;;;;7.26;65.54;100687.72;5128400;28;20051;-28
2022/04/15 00:39:00;;;;;;;10.65;6.72;;;;;;;7.20;65.92;100691.91;5128092;28;20031;-30
2022/04/15 00:41:25;;;;;;;10.82;6.68;;;;;;;7.40;64.36;100673.63;5128259;28;20065;-28
2022/04/15 00:43:58;;;;;;;11.13;6.50;;;;;;;7.05;66.17;100686.59;5128245;28;20195;-28
2022/04/15 00:46:24;;;;;;;9.50;5.10;;;;;;;6.90;66.97;100681.25;5109774;28;20058;-29
2022/04/15 00:48:49;;;;;;;9.43;6.10;;;;;;;6.53;67.21;100664.31;5131474;27;20471;-29
2022/04/15 00:51:14;;;;;;;10.57;5.88;;;;;;;6.78;66.67;100672.06;5132464;27;20041;-34
2022/04/15 00:53:44;;;;;;;10.70;6.65;;;;;;;6.93;66.57;100661.53;5113388;27;20019;-29
2022/04/15 00:56:11;;;;;;;12.40;7.10;;;;;;;7.42;65.08;100688.34;5131836;27;20030;-28
2022/04/15 00:58:39;;;;;;;11.63;7.30;;;;;;;7.70;64.66;100684.22;5131857;27;20886;-29
2022/04/15 01:01:06;;;;;;;14.63;8.48;;;;;;;7.75;63.10;100684.50;5132082;27;20164;-29
2022/04/15 01:03:32;;;;;;;12.63;7.70;;;;;;;7.57;64.81;100667.13;5132023;27;20032;-29
2022/04/15 01:05:59;;;;;;;15.85;9.10;;;;;;;7.27;65.54;100670.78;5131872;27;20053;-30
2022/04/15 01:08:27;;;;;;;11.10;7.85;;;;;;;7.54;65.07;100686.06;5113154;27;20780;-29
2022/04/15 01:10:56;;;;;;;11.68;7.28;;;;;;;7.41;65.97;100665.47;5130418;27;20053;-29
2022/04/15 01:13:24;;;;;;;11.55;7.72;;;;;;;7.36;65.37;100649.28;5113304;27;20831;-28
2022/04/15 01:15:53;;;;;;;12.13;8.20;;;;;;;7.89;63.42;100678.34;5113048;27;20027;-32
2022/04/15 01:18:18;;;;;;;10.27;7.15;;;;;;;7.84;62.63;100672.75;5131455;27;20027;-29
2022/04/15 01:20:48;;;;;;;10.45;7.68;;;;;;;7.73;62.87;100665.28;5131291;27;20035;-29
2022/04/15 01:23:14;;;;;;;13.57;7.70;;;;;;;7.50;64.05;100665.38;5131418;27;20406;-28
2022/04/15 01:25:39;;;;;;;12.70;8.52;;;;;;;7.70;63.47;100655.84;5112871;27;20087;-30
2022/04/15 01:28:06;;;;;;;11.77;8.32;;;;;;;7.54;64.33;100656.88;5131551;27;20046;-29
2022/04/15 01:30:32;;;;;;;11.95;8.40;;;;;;;8.20;62.16;100677.25;5131334;27;20063;-28
2022/04/15 01:32:58;;;;;;;11.60;8.02;;;;;;;7.55;64.86;100671.78;5131347;27;20027;-28
2022/04/15 01:35:23;;;;;;;13.02;8.55;;;;;;;7.82;63.56;100680.09;5131281;27;20108;-28
2022/04/15 01:37:49;;;;;;;16.30;10.05;;;;;;;7.78;63.05;100662.88;5130983;27;20086;-28
2022/04/15 01:40:17;;;;;;;18.38;10.95;;;;;;;8.18;62.01;100676.63;5131317;27;20103;-31
2022/04/15 01:42:45;;;;;;;17.70;10.30;;;;;;;8.15;61.34;100661.03;5112695;27;20915;-28
2022/04/15 01:45:12;;;;;;;14.33;10.93;;;;;;;7.88;62.32;100663.41;5131271;27;20031;-29
2022/04/15 01:47:37;;;;;;;14.73;10.18;;;;;;;7.86;62.00;100652.16;5131173;27;20256;-29
2022/04/15 01:50:05;;;;;;;12.77;8.55;;;;;;;7.97;62.47;100664.16;5131336;27;20387;-29
2022/04/15 01:52:30;;;;;;;12.52;8.65;;;;;;;7.92;62.08;100656.72;5112140;27;20027;-28
2022/04/15 01:54:56;;;;;;;13.20;9.80;;;;;;;7.82;63.32;100640.25;5131090;27;20483;-29
2022/04/15 01:57:22;;;;;;;15.30;10.77;;;;;;;7.86;61.90;100646.84;5112430;27;20027;-28
2022/04/15 01:59:47;;;;;;;16.23;13.30;;;;;;;7.81;62.83;100647.41;5129608;27;20026;-31
2022/04/15 02:02:13;;;;;;;15.90;11.88;;;;;;;7.79;63.66;100648.59;5130930;27;20023;-28
2022/04/15 02:04:39;;;;;;;17.33;12.75;;;;;;;7.64;62.65;100646.81;5130474;27;20718;-29
2022/04/15 02:07:04;;;;;;;19.02;13.52;;;;;;;7.74;63.26;100641.19;5095498;27;20042;-29
2022/04/15 02:09:30;;;;;;;15.95;11.55;;;;;;;7.58;63.97;100638.72;5130869;27;20033;-29
2022/04/15 02:11:56;;;;;;;21.25;12.98;;;;;;;7.67;63.67;100615.59;5130925;27;20090;-29
2022/04/15 02:14:21;;;;;;;14.77;9.73;;;;;;;7.65;63.30;100643.13;5130562;27;20031;-28
2022/04/15 02:16:47;;;;;;;14.15;8.20;;;;;;;7.60;62.91;100632.25;5130445;27;20020;-28
2022/04/15 02:19:13;;;;;;;12.70;7.72;;;;;;;7.95;62.01;100644.91;5111975;27;20563;-29
2022/04/15 02:21:39;;;;;;;12.30;8.00;;;;;;;7.92;61.82;100632.81;5130336;27;20027;-29
2022/04/15 02:24:06;;;;;;;10.98;7.18;;;;;;;7.36;63.81;100635.22;5130572;27;20035;-28
2022/04/15 02:26:31;;;;;;;10.25;6.93;;;;;;;7.19;65.17;100632.75;5111499;27;20519;-28
2022/04/15 02:28:57;;;;;;;10.68;6.65;;;;;;;7.36;64.56;100637.88;5130381;27;20091;-32
2022/04/15 02:31:23;;;;;;;10.50;6.45;;;;;;;7.39;64.41;100642.78;5130339;27;20395;-30
2022/04/15 02:33:49;;;;;;;9.77;6.15;;;;;;;7.44;63.89;100640.41;5130271;27;20035;-32
2022/04/15 02:36:16;;;;;;;9.38;6.40;;;;;;;7.43;63.42;100626.31;5129840;27;20173;-28
2022/04/15 02:38:41;;;;;;;10.55;5.72;;;;;;;6.97;64.36;100618.53;5111461;27;20502;-30
2022/04/15 02:41:07;;;;;;;8.93;5.90;;;;;;;7.16;64.22;100630.44;5130098;27;20031;-28
2022/04/15 02:43:33;;;;;;;7.88;5.78;;;;;;;6.93;64.05;100622.56;5111610;27;20031;-29
2022/04/15 02:45:59;;;;;;;9.85;5.47;;;;;;;7.11;64.71;100635.47;5130144;27;20038;-32
2022/04/15 02:48:25;;;;;;;9.50;6.35;;;;;;;6.99;64.40;100610.41;5129540;27;20030;-29
2022/04/15 02:50:51;;;;;;;9.15;5.90;;;;;;;6.54;66.30;100641.28;5129846;27;20442;-28
2022/04/15 02:53:17;;;;;;;8.90;5.72;;;;;;;6.65;65.95;100630.28;5129930;27;20402;-30
2022/04/15 02:55:42;;;;;;;13.65;7.18;;;;;;;6.36;66.35;100642.44;5111255;27;20028;-28
2022/04/15 02:58:08;;;;;;;11.05;7.40;;;;;;;6.21;68.18;100633.59;5129715;27;20038;-27
2022/04/15 03:00:33;;;;;;;10.05;7.22;;;;;;;6.20;67.07;100631.97;5110948;27;20038;-28
2022/04/15 03:02:59;;;;;;;11.02;7.00;;;;;;;6.22;67.51;100614.88;5111285;27;20036;-28
2022/04/15 03:05:24;;;;;;;12.38;6.97;;;;;;;5.86;69.15;100611.94;5110763;27;20031;-28
2022/04/15 03:07:50;;;;;;;10.82;6.95;;;;;;;6.15;69.10;100629.00;5129730;27;20026;-28
2022/04/15 03:10:15;;;;;;;10.27;6.80;;;;;;;5.90;70.07;100629.13;5129245;27;20031;-28
2022/04/15 03:12:41;;;;;;;13.43;7.25;;;;;;;5.55;71.39;100622.53;5129326;27;20050;-30
2022/04/15 03:15:09;;;;;;;10.65;6.53;;;;;;;6.02;68.99;100614.50;5129387;27;20037;-28
2022/04/15 03:17:35;;;;;;;9.07;6.68;;;;;;;5.72;68.75;100581.78;5110764;27;20031;-30
2022/04/15 03:20:03;;;;;;;11.18;7.80;;;;;;;6.17;68.51;100617.25;5129181;27;20027;-28
2022/04/15 03:22:30;;;;;;;16.00;8.63;;;;;;;5.92;70.19;100623.66;5129130;27;20031;-31
2022/04/15 03:24:55;;;;;;;15.93;8.00;;;;;;;5.88;69.81;100623.19;5129143;27;20499;-29
2022/04/15 03:27:21;;;;;;;13.25;7.72;;;;;;;5.46;71.40;100595.28;5110344;27;20056;-29
2022/04/15 03:29:47;;;;;;;12.20;7.30;;;;;;;5.64;71.14;100624.97;5129097;27;20038;-30
2022/04/15 03:32:12;;;;;;;12.20;7.38;;;;;;;5.69;70.99;100613.03;5128263;27;20129;-28
2022/04/15 03:34:38;;;;;;;11.88;7.85;;;;;;;5.64;71.15;100626.81;5129065;27;20043;-29
2022/04/15 03:37:04;;;;;;;11.02;7.70;;;;;;;5.86;70.08;100634.94;5110592;27;20491;-28
2022/04/15 03:39:29;;;;;;;13.63;7.97;;;;;;;5.75;70.46;100644.09;5110539;27;20520;-33
2022/04/15 03:41:55;;;;;;;14.02;8.10;;;;;;;5.56;71.43;100643.53;5110634;27;20027;-29
2022/04/15 03:44:20;;;;;;;13.85;8.27;;;;;;;5.93;70.04;100641.19;5128848;27;20079;-29
2022/04/15 03:46:46;;;;;;;12.70;9.15;;;;;;;6.25;69.48;100648.13;5128932;27;20035;-31
2022/04/15 03:49:11;;;;;;;14.27;9.07;;;;;;;6.11;69.94;100648.88;5128766;27;20027;-29
2022/04/15 03:51:37;;;;;;;16.10;9.98;;;;;;;6.24;69.35;100646.50;5128924;27;20483;-31
2022/04/15 03:54:03;;;;;;;15.20;9.82;;;;;;;5.74;71.41;100639.78;5128865;27;20089;-29
2022/04/15 03:56:28;;;;;;;16.55;9.52;;;;;;;5.82;69.86;100630.00;5128745;27;20551;-37
2022/04/15 03:58:54;;;;;;;16.55;9.38;;;;;;;5.78;70.93;100649.03;5128694;27;20031;-28
2022/04/15 04:01:19;;;;;;;16.75;10.18;;;;;;;5.80;70.36;100649.69;5128677;27;20031;-30
2022/04/15 04:03:45;;;;;;;15.18;9.60;;;;;;;5.82;70.24;100645.03;5110166;28;20027;-29
2022/04/15 04:06:11;;;;;;;14.80;10.30;;;;;;;5.60;70.63;100628.13;5110174;28;20019;-30
2022/04/15 04:08:36;;;;;;;17.55;9.52;;;;;;;5.75;71.92;100654.69;5128333;27;20100;-29
2022/04/15 04:11:02;;;;;;;17.48;10.65;;;;;;;6.13;69.97;100646.88;5128675;28;20023;-29
2022/04/15 04:13:28;;;;;;;18.90;10.43;;;;;;;6.42;69.13;100643.56;5128661;28;20023;-29
2022/04/15 04:15:53;;;;;;;15.50;10.60;;;;;;;6.28;68.90;100649.63;5128472;28;20038;-29
2022/04/15 04:18:21;;;;;;;21.30;10.27;;;;;;;6.63;68.69;100669.38;5128160;28;20034;-29
2022/04/15 04:20:48;;;;;;;19.15;11.43;;;;;;;6.58;68.36;100655.88;5110031;28;20062;-28
2022/04/15 04:23:13;;;;;;;17.25;12.00;;;;;;;6.72;68.03;100670.13;5112329;27;20062;-30
2022/04/15 04:25:39;;;;;;;21.70;12.75;;;;;;;6.93;67.14;100665.00;5133299;27;20053;-29
2022/04/15 04:28:04;;;;;;;101.25;17.98;;;;;;;6.78;68.38;100678.22;5132749;27;20452;-32
2022/04/15 04:30:30;;;;;;;66.10;31.30;;;;;;;6.71;69.07;100676.47;5132456;27;20052;-28
2022/04/15 04:32:58;;;;;;;50.35;22.98;;;;;;;6.92;67.92;100670.47;5132285;27;20026;-32
2022/04/15 04:35:23;;;;;;;32.58;15.85;;;;;;;6.61;69.91;100674.03;5132591;27;20518;-29
2022/04/15 04:37:49;;;;;;;23.02;13.15;;;;;;;6.58;70.35;100640.78;5132406;27;20042;-29
2022/04/15 04:40:15;;;;;;;42.08;23.95;;;;;;;6.84;69.68;100666.91;5132385;27;20031;-30
2022/04/15 04:42:41;;;;;;;55.78;21.77;;;;;;;6.84;69.89;100656.28;5132251;27;20023;-29
2022/04/15 04:45:07;;;;;;;38.72;23.70;;;;;;;6.98;68.98;100645.88;5113627;27;20038;-30
2022/04/15 04:47:33;;;;;;;44.35;26.45;;;;;;;7.00;69.26;100651.81;5113873;27;20095;-31
2022/04/15 04:50:01;;;;;;;30.23;19.58;;;;;;;7.46;66.96;100659.63;5132631;27;20027;-30
2022/04/15 04:52:26;;;;;;;26.38;18.15;;;;;;;7.72;65.90;100672.41;5131805;27;20019;-29
2022/04/15 04:54:52;;;;;;;25.67;14.77;;;;;;;7.65;65.95;100674.16;5131959;27;20458;-29
2022/04/15 04:57:18;;;;;;;26.85;15.18;;;;;;;7.33;68.04;100675.34;5113458;27;20035;-28
2022/04/15 04:59:43;;;;;;;25.50;15.77;;;;;;;7.45;68.90;100684.50;5131682;27;20106;-29
2022/04/15 05:02:10;;;;;;;20.75;13.88;;;;;;;7.36;68.51;100664.41;5132103;27;20046;-33
2022/04/15 05:04:36;;;;;;;21.15;13.75;;;;;;;7.60;68.66;100664.09;5113215;27;20023;-28
2022/04/15 05:07:03;;;;;;;18.95;13.57;;;;;;;7.69;68.73;100666.66;5132340;27;20079;-29
2022/04/15 05:09:29;;;;;;;21.95;13.30;;;;;;;8.10;66.48;100672.25;5113364;27;20022;-29
2022/04/15 05:11:55;;;;;;;20.80;13.02;;;;;;;8.20;66.98;100678.06;5131765;27;20054;-28
2022/04/15 05:14:20;;;;;;;18.63;12.40;;;;;;;8.30;65.46;100667.16;5131424;27;20080;-29
2022/04/15 05:16:46;;;;;;;17.27;12.00;;;;;;;8.43;65.98;100677.94;5131448;27;20323;-29
2022/04/15 05:19:12;;;;;;;19.17;11.63;;;;;;;8.71;64.45;100663.88;5131704;27;20031;-29
2022/04/15 05:21:38;;;;;;;15.55;11.90;;;;;;;9.07;63.50;100686.03;5131949;27;20479;-35
2022/04/15 05:24:04;;;;;;;15.30;10.90;;;;;;;9.41;63.00;100669.28;5131563;27;20474;-28
2022/04/15 05:26:33;;;;;;;18.63;11.00;;;;;;;9.51;61.54;100683.03;5131090;27;20027;-29
2022/04/15 05:28:58;;;;;;;15.07;10.63;;;;;;;9.52;61.03;100678.53;5131149;27;20024;-29
2022/04/15 05:31:24;;;;;;;15.85;11.43;;;;;;;9.76;61.21;100685.22;5112967;27;20034;-31
2022/04/15 05:33:49;;;;;;;14.38;10.15;;;;;;;9.93;60.73;100680.34;5131155;27;20044;-29
2022/04/15 05:36:16;;;;;;;16.95;9.60;;;;;;;9.72;61.01;100686.63;5131371;27;20418;-32
2022/04/15 05:38:42;;;;;;;16.50;10.38;;;;;;;9.74;61.49;100690.72;5112598;27;20027;-29
2022/04/15 05:41:07;;;;;;;16.02;10.68;;;;;;;9.74;61.58;100689.91;5131347;27;20089;-28
2022/04/15 05:43:33;;;;;;;15.10;10.15;;;;;;;10.03;60.58;100689.63;5130745;27;20542;-31
2022/04/15 05:45:58;;;;;;;17.95;10.68;;;;;;;10.09;60.82;100685.31;5131368;27;20062;-29
2022/04/15 05:48:24;;;;;;;15.48;11.32;;;;;;;10.35;61.35;100692.63;5131015;27;20042;-29
2022/04/15 05:50:49;;;;;;;15.60;9.80;;;;;;;10.53;58.70;100689.38;5131306;27;20039;-28
2022/04/15 05:53:14;;;;;;;15.05;10.50;;;;;;;10.61;57.50;100685.69;5112392;27;20031;-29
2022/04/15 05:55:40;;;;;;;12.98;9.77;;;;;;;10.67;57.23;100674.22;5131059;27;20023;-33
2022/04/15 05:58:07;;;;;;;15.15;9.80;;;;;;;10.45;57.29;100663.72;5130865;27;20019;-28
2022/04/15 06:00:33;;;;;;;16.13;10.77;;;;;;;10.70;58.30;100681.78;5112098;27;20485;-30
2022/04/15 06:02:58;;;;;;;13.55;9.75;;;;;;;11.00;57.72;100684.88;5130925;27;20486;-33
2022/04/15 06:05:24;;;;;;;13.50;9.60;;;;;;;11.03;57.38;100688.97;5130435;27;20027;-28
2022/04/15 06:07:50;;;;;;;14.98;9.45;;;;;;;10.96;55.67;100677.50;5130697;27;20027;-30
2022/04/15 06:10:16;;;;;;;13.88;9.18;;;;;;;10.94;57.23;100663.53;5111897;27;20027;-30
2022/04/15 06:15:31;;;;;;;15.10;9.52;;;;;;;11.24;55.31;100669.25;5130582;27;20084;-34
2022/04/15 06:17:57;;;;;;;19.17;9.50;;;;;;;11.31;54.97;100670.03;5130645;27;20099;-28
2022/04/15 06:20:24;;;;;;;14.27;9.30;;;;;;;11.44;55.12;100686.03;5111385;27;20027;-32
2022/04/15 06:22:49;;;;;;;13.00;8.80;;;;;;;11.36;54.74;100661.41;5111806;27;20058;-29
2022/04/15 06:25:15;;;;;;;13.35;9.60;;;;;;;11.63;55.00;100668.31;5130382;27;20062;-29
2022/04/15 06:27:41;;;;;;;13.00;8.38;;;;;;;11.70;53.57;100683.50;5130032;27;20087;-30
2022/04/15 06:30:08;;;;;;;15.13;9.82;;;;;;;11.84;53.84;100680.56;5130509;27;20065;-31
2022/04/15 06:32:34;;;;;;;13.48;9.38;;;;;;;12.11;54.98;100672.44;5111335;27;20047;-29
2022/04/15 06:34:59;;;;;;;12.93;9.13;;;;;;;12.14;54.62;100665.88;5111409;27;20577;-30
2022/04/15 06:37:25;;;;;;;14.85;8.73;;;;;;;11.75;54.04;100659.63;5129790;27;20051;-28
2022/04/15 06:39:51;;;;;;;13.43;8.90;;;;;;;11.96;52.81;100656.69;5129686;27;20027;-28
2022/04/15 06:42:30;;;;;;;13.48;9.15;;;;;;;12.24;53.71;100674.25;5111548;27;20073;-34
2022/04/15 06:44:58;;;;;;;15.73;8.30;;;;;;;12.49;53.33;100676.13;5129492;27;20016;-29
2022/04/15 06:47:23;;;;;;;12.77;8.63;;;;;;;12.45;53.44;100671.22;5129879;27;20035;-28
2022/04/15 06:49:49;;;;;;;14.32;8.65;;;;;;;12.93;54.02;100661.78;5129966;27;20087;-30
2022/04/15 06:52:15;;;;;;;13.32;8.32;;;;;;;13.34;51.72;100687.19;5129502;27;20031;-30
2022/04/15 06:54:41;;;;;;;12.68;8.43;;;;;;;13.52;50.93;100659.56;5129635;27;20037;-32
2022/04/15 06:57:07;;;;;;;10.82;7.95;;;;;;;13.63;50.00;100677.59;5111382;27;20035;-28
2022/04/15 06:59:33;;;;;;;11.13;7.88;;;;;;;13.86;49.03;100676.06;5129667;27;20052;-30
2022/04/15 07:01:59;;;;;;;9.23;6.75;;;;;;;13.86;48.07;100665.34;5111061;27;20038;-29
2022/04/15 07:04:26;;;;;;;11.15;7.95;;;;;;;14.13;50.36;100670.38;5129278;27;20034;-31
2022/04/15 07:06:51;;;;;;;11.68;7.07;;;;;;;14.36;46.90;100680.34;5129347;27;20627;-29
2022/04/15 07:09:17;;;;;;;11.40;8.00;;;;;;;14.51;49.38;100667.34;5129576;27;20105;-34
2022/04/15 07:11:43;;;;;;;10.43;7.15;;;;;;;14.77;45.30;100676.88;5129603;27;20494;-30
2022/04/15 07:14:08;;;;;;;11.63;7.78;;;;;;;14.92;45.43;100676.41;5129533;27;20395;-28
2022/04/15 07:16:36;;;;;;;9.57;5.93;;;;;;;14.95;43.66;100677.81;5129286;27;20031;-28
2022/04/15 07:19:07;;;;;;;11.73;6.63;;;;;;;15.22;42.19;100662.88;5129397;27;20522;-32
2022/04/15 07:21:39;;;;;;;9.43;6.30;;;;;;;15.41;43.01;100676.16;5110530;27;20093;-29
2022/04/15 07:24:06;;;;;;;11.07;7.22;;;;;;;15.57;47.87;100680.81;5129216;27;20658;-31
2022/04/15 07:26:32;;;;;;;9.68;5.35;;;;;;;15.61;41.02;100679.28;5129154;27;20046;-33
2022/04/15 07:28:57;;;;;;;11.00;6.50;;;;;;;15.62;42.49;100667.47;5129269;27;20031;-30
2022/04/15 07:31:24;;;;;;;9.25;5.68;;;;;;;15.64;42.13;100675.31;5129118;27;20053;-30
2022/04/15 07:33:50;;;;;;;8.65;5.72;;;;;;;15.83;41.96;100674.13;5129120;27;20050;-33
2022/04/15 07:36:42;;;;;;;7.93;5.60;;;;;;;15.67;43.08;100654.13;5110161;27;20047;-28
2022/04/15 07:39:09;;;;;;;8.98;5.50;;;;;;;16.15;43.45;100660.19;5110569;27;20118;-28
2022/04/15 07:41:36;;;;;;;13.97;5.40;;;;;;;16.21;39.81;100648.44;5110303;27;20031;-28
2022/04/15 07:44:12;;;;;;;8.85;6.15;;;;;;;16.20;42.46;100656.75;5110326;27;20581;-29
2022/04/15 07:46:39;;;;;;;11.60;6.80;;;;;;;16.39;42.49;100655.50;5128301;27;20057;-33
2022/04/15 07:49:05;;;;;;;10.43;5.63;;;;;;;16.57;41.59;100654.47;5110348;27;20031;-37
2022/04/15 07:51:32;;;;;;;9.93;6.18;;;;;;;16.94;40.28;100650.44;5110137;27;20118;-32
2022/04/15 07:53:57;;;;;;;8.95;6.13;;;;;;;17.22;44.50;100658.44;5110302;27;20023;-28
2022/04/15 07:56:23;;;;;;;8.80;6.20;;;;;;;17.34;41.52;100654.81;5127805;27;20125;-32
2022/04/15 07:58:50;;;;;;;9.23;5.82;;;;;;;16.82;41.10;100662.16;5127978;27;20470;-28
2022/04/15 08:01:16;;;;;;;12.70;5.95;;;;;;;16.74;41.09;100657.16;5128092;27;20134;-31
2022/04/15 08:03:42;;;;;;;9.43;6.50;;;;;;;16.72;42.95;100651.19;5110109;27;20064;-29
2022/04/15 08:06:07;;;;;;;9.48;6.05;;;;;;;16.74;44.29;100649.06;5128514;27;20023;-28
2022/04/15 08:08:33;;;;;;;10.02;6.07;;;;;;;16.78;41.65;100638.63;5128320;27;20526;-28
2022/04/15 08:10:58;;;;;;;9.27;6.05;;;;;;;16.93;42.49;100644.25;5109918;28;20035;-30
2022/04/15 08:13:24;;;;;;;9.35;6.05;;;;;;;16.78;42.25;100652.91;5128421;28;20035;-29
2022/04/15 08:15:53;;;;;;;11.75;6.72;;;;;;;16.69;42.72;100643.59;5128251;28;20023;-31
2022/04/15 08:18:19;;;;;;;7.93;5.70;;;;;;;16.93;42.72;100635.38;5128343;28;20023;-30
2022/04/15 08:20:45;;;;;;;8.65;5.63;;;;;;;16.98;41.30;100640.81;5109965;28;20035;-30
2022/04/15 08:23:11;;;;;;;9.23;5.93;;;;;;;16.77;41.46;100640.47;5128291;28;20096;-32
2022/04/15 08:25:39;;;;;;;10.13;6.18;;;;;;;17.07;41.72;100629.38;5128498;28;20027;-28
2022/04/15 08:28:05;;;;;;;9.73;5.68;;;;;;;17.31;40.65;100633.75;5128410;28;20083;-35
2022/04/15 08:30:33;;;;;;;8.10;5.38;;;;;;;17.20;39.25;100614.75;5109684;28;20546;-29
2022/04/15 08:32:59;;;;;;;9.07;5.97;;;;;;;17.79;39.03;100629.47;5128413;28;20038;-29
2022/04/15 08:35:26;;;;;;;10.70;5.75;;;;;;;17.81;39.46;100622.72;5109491;28;20039;-30
2022/04/15 08:37:53;;;;;;;9.48;5.85;;;;;;;17.76;39.21;100620.00;5109528;28;20054;-30
2022/04/15 08:40:18;;;;;;;12.00;6.43;;;;;;;17.77;37.87;100610.81;5127602;28;20399;-28
2022/04/15 08:42:44;;;;;;;9.57;6.05;;;;;;;18.03;39.34;100601.13;5128060;28;20031;-28
2022/04/15 08:45:12;;;;;;;8.23;5.43;;;;;;;18.37;39.53;100611.72;5128161;28;20028;-29
2022/04/15 08:47:39;;;;;;;9.60;6.00;;;;;;;18.62;36.80;100608.38;5109703;28;20033;-31
2022/04/15 08:50:07;;;;;;;10.95;6.63;;;;;;;18.32;37.80;100600.84;5109390;28;20027;-36
2022/04/15 08:52:33;;;;;;;8.85;5.53;;;;;;;18.74;38.36;100586.59;5128067;28;20039;-30
2022/04/15 08:55:01;;;;;;;8.20;5.55;;;;;;;18.96;36.55;100593.75;5128064;28;20061;-28
2022/04/15 08:57:27;;;;;;;12.00;5.82;;;;;;;19.16;38.74;100595.75;5128034;28;20518;-36
2022/04/15 08:59:53;;;;;;;9.45;5.57;;;;;;;19.32;37.95;100592.06;5109453;28;20031;-30
2022/04/15 09:02:35;;;;;;;9.82;5.72;;;;;;;19.09;35.81;100600.63;5109111;28;20080;-28
2022/04/15 09:05:01;;;;;;;9.02;5.25;;;;;;;19.18;37.04;100580.09;5127948;28;20036;-32
2022/04/15 09:07:29;;;;;;;7.20;5.05;;;;;;;19.50;36.55;100569.13;5127747;28;20034;-29
2022/04/15 09:09:58;;;;;;;9.43;4.97;;;;;;;20.09;36.10;100573.34;5112242;27;20089;-28
2022/04/15 09:12:28;;;;;;;10.13;4.50;;;;;;;19.50;33.02;100568.34;5131590;27;20027;-29
2022/04/15 09:15:14;;;;;;;8.07;4.93;;;;;;;20.14;33.46;100575.22;5113497;27;20411;-29
2022/04/15 09:17:42;;;;;;;6.75;4.18;;;;;;;20.06;34.06;100561.16;5112931;27;20132;-30
2022/04/15 09:20:12;;;;;;;9.23;5.20;;;;;;;20.25;35.31;100574.16;5112897;27;20050;-29
2022/04/15 09:22:38;;;;;;;7.55;4.70;;;;;;;20.52;36.06;100559.50;5131241;27;20099;-31
2022/04/15 09:25:06;;;;;;;7.25;4.18;;;;;;;20.70;33.82;100569.81;5131576;27;20027;-31
2022/04/15 09:27:34;;;;;;;7.47;4.53;;;;;;;20.82;33.77;100558.66;5131672;27;20088;-30
2022/04/15 09:29:59;;;;;;;8.98;4.60;;;;;;;20.72;33.64;100570.34;5131568;27;20031;-29
2022/04/15 09:32:26;;;;;;;8.82;4.95;;;;;;;20.92;32.88;100560.53;5131148;27;20053;-29
2022/04/15 09:34:54;;;;;;;7.15;4.25;;;;;;;21.19;32.35;100552.84;5112695;27;20068;-29
2022/04/15 09:37:20;;;;;;;7.57;4.47;;;;;;;21.12;30.05;100557.75;5131295;27;20495;-29
2022/04/15 09:40:15;;;;;;;8.82;4.90;;;;;;;21.22;34.16;100546.84;5113018;27;20042;-30
2022/04/15 09:42:52;;;;;;;9.40;5.90;;;;;;;21.46;34.15;100540.81;5112445;27;20044;-36
2022/04/15 09:45:30;;;;;;;8.57;5.60;;;;;;;21.63;31.16;100535.81;5130042;27;20099;-33
2022/04/15 09:47:59;;;;;;;6.95;4.05;;;;;;;21.72;31.51;100527.91;5130976;27;20046;-31
2022/04/15 09:50:28;;;;;;;9.52;4.30;;;;;;;22.06;30.98;100524.38;5130736;27;20042;-28
2022/04/15 09:53:07;;;;;;;9.20;4.38;;;;;;;22.11;29.74;100529.78;5130878;27;20019;-30
2022/04/15 09:55:34;;;;;;;6.43;3.33;;;;;;;21.82;30.49;100510.69;5112186;27;20398;-34
2022/04/15 09:58:04;;;;;;;7.25;4.07;;;;;;;22.07;29.86;100524.09;5112419;27;20023;-29
2022/04/15 10:00:30;;;;;;;9.45;4.10;;;;;;;22.22;29.48;100530.47;5131030;27;20114;-30
2022/04/15 10:02:57;;;;;;;6.53;4.20;;;;;;;21.87;29.79;100516.91;5130733;27;20183;-28
2022/04/15 10:05:23;;;;;;;6.10;3.72;;;;;;;22.08;28.72;100493.09;5095157;27;20106;-29
2022/04/15 10:07:49;;;;;;;6.53;3.33;;;;;;;22.31;30.44;100507.06;5130516;27;20459;-32
2022/04/15 10:10:15;;;;;;;6.78;3.42;;;;;;;22.16;28.81;100488.16;5094790;27;20459;-29
2022/04/15 10:12:42;;;;;;;6.00;3.75;;;;;;;22.40;28.61;100478.16;5130199;27;20062;-33
2022/04/15 10:15:09;;;;;;;8.10;3.85;;;;;;;22.74;29.27;100488.13;5112105;27;20597;-29
2022/04/15 10:17:39;;;;;;;8.55;3.92;;;;;;;23.32;28.71;100481.69;5111735;27;20031;-29
2022/04/15 10:20:05;;;;;;;6.35;4.25;;;;;;;23.11;26.99;100466.75;5129301;27;20049;-29
2022/04/15 10:22:32;;;;;;;5.88;3.55;;;;;;;23.31;28.05;100462.94;5111766;27;20032;-28
2022/04/15 10:24:57;;;;;;;6.20;3.35;;;;;;;23.66;28.74;100486.09;5111524;27;20022;-32
2022/04/15 10:27:29;;;;;;;6.97;4.28;;;;;;;23.92;28.50;100466.66;5130224;27;20027;-29
2022/04/15 10:30:15;;;;;;;7.38;3.40;;;;;;;24.15;25.23;100475.78;5130299;27;20110;-28
2022/04/15 10:32:47;;;;;;;6.15;3.33;;;;;;;23.89;27.06;100457.16;5130206;27;20088;-31
2022/04/15 10:35:21;;;;;;;5.47;2.97;;;;;;;23.80;27.20;100464.38;5111301;27;20031;-28
2022/04/15 10:37:53;;;;;;;5.75;3.33;;;;;;;23.81;27.36;100466.00;5129870;27;20101;-29
2022/04/15 10:40:45;;;;;;;5.50;3.20;;;;;;;24.31;27.74;100463.47;5111309;27;20030;-29
2022/04/15 10:43:22;;;;;;;7.03;3.22;;;;;;;24.51;27.36;100450.63;5118677;27;20039;-29
2022/04/15 10:45:51;;;;;;;6.83;2.93;;;;;;;24.31;25.94;100463.47;5129780;27;20529;-30
2022/04/15 10:48:29;;;;;;;5.97;3.17;;;;;;;24.63;29.19;100443.53;5129791;27;20136;-28
2022/04/15 10:50:54;;;;;;;5.65;3.13;;;;;;;25.01;27.00;100443.28;5111488;27;20442;-29
2022/04/15 10:53:23;;;;;;;5.32;2.80;;;;;;;25.39;27.08;100448.44;5129623;27;20027;-30
2022/04/15 10:55:52;;;;;;;5.93;3.08;;;;;;;25.65;25.31;100434.19;5111174;27;20031;-28
2022/04/15 10:58:19;;;;;;;6.43;3.50;;;;;;;25.42;24.51;100436.94;5110506;27;20060;-29
2022/04/15 11:03:31;;;;;;;7.57;3.22;;;;;;;25.50;25.78;100429.09;5129572;27;20453;-29
2022/04/15 11:06:00;;;;;;;;;;;;;;;25.40;25.21;100421.97;5130033;27;20027;-31
2022/04/15 11:08:27;;;;;;;6.13;3.17;;;;;;;25.89;24.30;100417.47;5110346;27;19968;-32
2022/04/15 11:10:55;;;;;;;6.25;3.35;;;;;;;25.97;25.65;100415.91;5128179;27;20026;-35
2022/04/15 11:13:32;;;;;;;5.50;2.92;;;;;;;26.24;23.18;100417.66;5129470;27;20483;-34
2022/04/15 11:16:04;;;;;;;5.50;3.00;;;;;;;26.06;22.90;100401.19;5110930;27;20027;-30
2022/04/15 11:18:50;;;;;;;7.57;3.33;;;;;;;26.03;25.98;100398.25;5128910;27;20534;-28
2022/04/15 11:21:19;;;;;;;5.70;2.85;;;;;;;25.74;25.81;100410.47;5129094;27;20908;-34
2022/04/15 11:23:56;;;;;;;6.85;3.00;;;;;;;25.82;25.67;100400.69;5110683;27;20038;-34
2022/04/15 11:26:23;;;;;;;5.88;3.00;;;;;;;26.17;25.44;100403.63;5110454;27;20498;-30